Time;durP1;ratioP1;P1;durP2;ratioP2;P2;SDS_P1;SDS_P2;PMS_P1;PMS_P2;Temp;Humidity;BMP_temperature;BMP_pressure;BME280_temperature;BME280_humidity;BME280_pressure;Samples;Min_cycle;Max_cycle;Signal;HPM_P1;HPM_P2
2022/01/05 00:02:08;;;;;;;;;1.00;1.00;;;;;8.33;54.56;100052.78;6221458;22;45384;-81
2022/01/05 00:04:35;;;;;;;;;1.00;1.00;;;;;8.10;54.59;100044.53;6222330;22;45216;-82
2022/01/05 00:07:01;;;;;;;;;2.00;0.00;;;;;8.06;54.70;100048.00;6219918;22;45504;-81
2022/01/05 00:09:27;;;;;;;;;2.00;2.00;;;;;8.04;53.93;100050.66;6221714;22;45462;-82
2022/01/05 00:11:52;;;;;;;;;2.00;1.00;;;;;7.99;53.70;100052.34;6220519;22;44854;-82
2022/01/05 00:14:17;;;;;;;;;0.67;0.33;;;;;7.96;53.79;100049.69;6220677;22;46899;-82
2022/01/05 00:16:43;;;;;;;;;1.00;1.00;;;;;7.96;53.79;100057.63;6223731;22;44700;-81
2022/01/05 00:19:08;;;;;;;;;0.00;0.00;;;;;7.92;53.28;100059.31;6219620;22;45371;-81
2022/01/05 00:21:34;;;;;;;;;6.00;2.33;;;;;7.89;53.47;100059.28;6221801;22;44794;-81
2022/01/05 00:23:59;;;;;;;;;1.33;1.00;;;;;7.87;53.50;100065.41;6217574;22;48040;-81
2022/01/05 00:26:27;;;;;;;;;2.00;1.67;;;;;7.82;53.92;100049.47;6218647;22;45676;-81
2022/01/05 00:28:53;;;;;;;;;0.67;0.67;;;;;7.85;54.02;100069.81;6220943;22;45306;-81
2022/01/05 00:31:18;;;;;;;;;3.00;2.00;;;;;7.84;54.05;100057.41;6220847;22;45290;-81
2022/01/05 00:33:44;;;;;;;;;1.00;1.00;;;;;7.94;53.72;100070.81;6218863;22;46794;-81
2022/01/05 00:36:10;;;;;;;;;3.00;3.00;;;;;7.82;53.76;100071.53;6219641;22;45601;-81
2022/01/05 00:38:42;;;;;;;;;1.67;1.00;;;;;8.10;53.69;100068.38;6220150;22;45378;-82
2022/01/05 00:41:08;;;;;;;;;1.00;1.00;;;;;7.80;54.07;100073.28;6220313;22;45468;-81
2022/01/05 00:43:33;;;;;;;;;1.00;1.00;;;;;7.79;54.15;100071.47;6223178;22;46173;-81
2022/01/05 00:45:59;;;;;;;;;2.00;2.00;;;;;7.79;54.17;100076.78;6218926;22;45334;-81
2022/01/05 00:48:24;;;;;;;;;1.33;1.33;;;;;7.66;54.24;100066.91;6221038;22;45348;-82
2022/01/05 00:50:49;;;;;;;;;1.00;1.00;;;;;7.69;54.41;100069.56;6220414;22;45319;-81
2022/01/05 00:53:15;;;;;;;;;1.00;1.00;;;;;7.76;54.66;100091.75;6218546;22;46574;-81
2022/01/05 00:55:40;;;;;;;;;5.00;2.67;;;;;7.77;54.79;100082.91;6220987;22;44654;-81
2022/01/05 00:58:06;;;;;;;;;1.33;1.33;;;;;7.80;54.23;100088.28;6220454;22;45232;-81
2022/01/05 01:00:31;;;;;;;;;1.00;1.00;;;;;7.82;54.43;100100.66;6222308;22;45518;-81
2022/01/05 01:02:57;;;;;;;;;3.00;3.00;;;;;7.77;54.62;100094.38;6222924;22;45401;-81
2022/01/05 01:05:22;;;;;;;;;2.67;2.00;;;;;7.82;54.88;100105.06;6221855;22;45305;-82
2022/01/05 01:07:47;;;;;;;;;0.00;0.00;;;;;7.79;54.57;100097.94;6223041;22;45621;-82
2022/01/05 01:10:13;;;;;;;;;2.00;2.00;;;;;7.82;54.17;100107.72;6222068;22;45431;-81
2022/01/05 01:12:39;;;;;;;;;0.00;0.00;;;;;7.80;54.22;100102.41;6222478;22;45241;-81
2022/01/05 01:15:06;;;;;;;;;2.33;1.67;;;;;7.99;54.68;100110.59;6245964;22;45355;-82
2022/01/05 01:17:32;;;;;;;;;1.33;1.33;;;;;7.78;53.83;100095.31;6221093;22;45342;-81
2022/01/05 01:19:58;;;;;;;;;2.33;1.00;;;;;7.77;53.77;100098.81;6220118;22;45259;-82
2022/01/05 01:22:24;;;;;;;;;1.67;1.67;;;;;7.76;53.90;100124.41;6220628;22;46452;-82
2022/01/05 01:24:49;;;;;;;;;1.00;1.00;;;;;7.67;53.90;100121.59;6218335;22;45451;-82
2022/01/05 01:27:15;;;;;;;;;2.00;0.00;;;;;7.64;53.82;100129.50;6217110;22;46226;-82
2022/01/05 01:29:40;;;;;;;;;0.00;0.00;;;;;7.68;53.88;100141.91;6220691;22;45379;-82
2022/01/05 01:32:06;;;;;;;;;2.67;2.00;;;;;7.66;54.22;100135.69;6219998;22;45311;-82
2022/01/05 01:34:31;;;;;;;;;3.00;2.00;;;;;7.67;53.65;100148.06;6217689;22;45580;-82
2022/01/05 01:36:56;;;;;;;;;1.67;0.67;;;;;7.70;54.05;100145.47;6220366;22;44985;-82
2022/01/05 01:39:22;;;;;;;;;5.00;5.00;;;;;7.72;53.79;100151.69;6219111;22;45448;-82
2022/01/05 01:41:47;;;;;;;;;2.33;2.33;;;;;7.71;54.16;100149.88;6221921;22;46491;-82
2022/01/05 01:44:13;;;;;;;;;2.00;2.00;;;;;7.75;53.92;100159.66;6219096;22;44804;-82
2022/01/05 01:46:38;;;;;;;;;2.33;2.00;;;;;7.81;54.23;100159.75;6221107;22;44781;-82
2022/01/05 01:49:04;;;;;;;;;5.00;3.00;;;;;7.81;53.56;100161.50;6220427;22;45444;-82
2022/01/05 01:51:29;;;;;;;;;2.33;2.00;;;;;7.76;53.36;100160.56;6220073;22;45409;-82
2022/01/05 01:53:55;;;;;;;;;2.00;1.67;;;;;7.78;53.64;100159.72;6221365;22;45087;-82
2022/01/05 01:56:24;;;;;;;;;2.67;2.00;;;;;7.92;53.91;100152.00;6220872;22;45502;-82
2022/01/05 01:58:51;;;;;;;;;2.00;0.33;;;;;7.86;53.38;100169.53;6219149;22;45271;-82
2022/01/05 02:01:17;;;;;;;;;3.00;3.00;;;;;7.81;53.70;100180.03;6221341;22;45464;-83
2022/01/05 02:03:43;;;;;;;;;2.00;1.00;;;;;7.86;53.45;100188.97;6219204;22;45405;-83
2022/01/05 02:09:30;;;;;;;;;2.67;2.33;;;;;7.79;53.59;100190.59;6219265;22;45334;-83
2022/01/05 02:11:56;;;;;;;;;2.33;2.33;;;;;7.84;53.42;100205.66;6215671;22;48509;-83
2022/01/05 02:14:21;;;;;;;;;1.67;0.67;;;;;7.89;53.12;100202.25;6215864;22;45741;-83
2022/01/05 02:16:47;;;;;;;;;1.00;1.00;;;;;7.91;53.32;100207.56;6216798;22;45720;-82
2022/01/05 02:19:13;;;;;;;;;2.00;2.00;;;;;7.98;53.52;100206.81;6218620;22;45381;-82
2022/01/05 02:21:42;;;;;;;;;2.33;2.00;;;;;8.01;52.98;100220.09;6219799;22;46859;-82
2022/01/05 02:25:03;;;;;;;;;1.00;1.00;;;;;8.32;52.45;100215.25;6224887;22;45371;-82
2022/01/05 02:27:29;;;;;;;;;1.00;1.00;;;;;7.99;53.15;100212.09;6221386;22;45386;-82
2022/01/05 02:29:54;;;;;;;;;1.67;1.00;;;;;7.99;53.35;100205.94;6223996;22;45457;-82
2022/01/05 02:32:20;;;;;;;;;2.33;2.33;;;;;8.01;53.05;100213.03;6224651;22;45948;-82
2022/01/05 02:34:45;;;;;;;;;1.00;1.00;;;;;7.96;53.19;100216.50;6221811;22;45314;-82
2022/01/05 02:38:07;;;;;;;;;1.00;1.00;;;;;8.33;52.54;100219.69;6222700;22;45721;-82
2022/01/05 02:40:32;;;;;;;;;3.33;2.00;;;;;7.98;53.08;100210.34;6223058;22;45413;-82
2022/01/05 02:42:58;;;;;;;;;1.67;1.00;;;;;7.93;52.40;100208.47;6220364;22;45233;-82
2022/01/05 02:45:24;;;;;;;;;0.33;0.33;;;;;7.94;52.99;100212.94;6219871;22;44827;-82
2022/01/05 02:47:50;;;;;;;;;2.00;1.00;;;;;7.92;52.76;100217.31;6222975;22;45498;-81
2022/01/05 02:50:15;;;;;;;;;3.33;2.67;;;;;7.92;52.92;100219.94;6219186;22;45451;-82
2022/01/05 02:52:42;;;;;;;;;0.67;0.67;;;;;7.97;52.96;100215.59;6218220;22;45451;-82
2022/01/05 02:55:10;;;;;;;;;0.00;0.00;;;;;8.04;53.01;100212.19;6216581;22;45402;-82
2022/01/05 02:57:36;;;;;;;;;3.00;2.33;;;;;7.96;53.20;100224.44;6219138;22;45365;-82
2022/01/05 03:00:04;;;;;;;;;5.00;2.00;;;;;8.00;52.59;100231.56;6214915;22;45467;-82
2022/01/05 03:02:29;;;;;;;;;1.33;1.33;;;;;7.87;52.95;100234.84;6218196;22;46482;-82
2022/01/05 03:04:55;;;;;;;;;2.00;2.00;;;;;7.81;53.21;100236.53;6216948;22;45380;-82
2022/01/05 03:07:21;;;;;;;;;1.00;1.00;;;;;7.94;52.88;100247.34;6218617;22;44977;-82
2022/01/05 03:09:46;;;;;;;;;1.00;1.00;;;;;7.69;52.80;100238.97;6217245;22;45637;-81
2022/01/05 03:12:13;;;;;;;;;7.00;3.00;;;;;7.71;53.18;100242.53;6218691;22;44862;-82
2022/01/05 03:14:39;;;;;;;;;0.00;0.00;;;;;7.73;52.97;100248.72;6218138;22;45584;-81
2022/01/05 03:17:04;;;;;;;;;4.33;1.00;;;;;7.70;53.12;100246.06;6217060;22;45451;-82
2022/01/05 03:19:31;;;;;;;;;2.00;2.00;;;;;7.88;53.11;100244.59;6218376;22;44775;-83
2022/01/05 03:21:56;;;;;;;;;2.00;2.00;;;;;7.71;53.19;100258.41;6221193;22;45906;-83
2022/01/05 03:24:23;;;;;;;;;1.67;1.67;;;;;7.68;52.65;100263.66;6219358;22;45468;-82
2022/01/05 03:26:48;;;;;;;;;1.00;1.00;;;;;7.61;52.93;100267.03;6219889;22;45250;-83
2022/01/05 03:29:14;;;;;;;;;3.67;3.67;;;;;7.56;52.96;100258.16;6216892;22;45667;-81
2022/01/05 03:31:40;;;;;;;;;1.33;1.33;;;;;7.78;53.17;100273.53;6218516;22;46844;-82
2022/01/05 03:34:06;;;;;;;;;13.00;3.33;;;;;7.56;53.18;100268.72;6220989;22;45465;-82
2022/01/05 03:36:32;;;;;;;;;3.33;2.00;;;;;7.59;53.21;100274.97;6219409;22;45347;-83
2022/01/05 03:38:58;;;;;;;;;4.00;2.00;;;;;7.51;53.04;100278.31;6219534;22;45279;-83
2022/01/05 03:41:23;;;;;;;;;1.33;1.00;;;;;7.48;53.07;100280.94;6219020;22;46704;-82
2022/01/05 03:43:51;;;;;;;;;5.33;3.33;;;;;7.54;53.24;100288.97;6216897;22;45329;-82
2022/01/05 03:46:23;;;;;;;;;5.00;2.33;;;;;7.51;52.79;100291.56;6214482;22;45365;-82
2022/01/05 03:48:48;;;;;;;;;4.33;2.67;;;;;7.52;53.37;100301.28;6219401;22;45278;-82
2022/01/05 03:51:13;;;;;;;;;1.67;1.67;;;;;7.53;52.86;100303.94;6244609;22;47020;-82
2022/01/05 03:53:39;;;;;;;;;2.67;1.33;;;;;7.51;53.30;100308.31;6220650;22;45418;-82
2022/01/05 03:56:05;;;;;;;;;2.00;1.00;;;;;7.70;53.06;100314.88;6216325;22;45888;-82
2022/01/05 03:58:31;;;;;;;;;2.67;2.67;;;;;7.50;53.36;100305.66;6220673;22;45313;-82
2022/01/05 04:00:56;;;;;;;;;2.67;2.67;;;;;7.50;53.17;100310.94;6221069;22;45491;-82
2022/01/05 04:03:22;;;;;;;;;3.00;1.67;;;;;7.55;53.46;100314.56;6220734;22;45339;-82
2022/01/05 04:05:47;;;;;;;;;2.67;1.00;;;;;7.57;53.22;100307.53;6217866;22;44947;-82
2022/01/05 04:08:14;;;;;;;;;5.00;1.33;;;;;7.76;53.05;100308.81;6218485;22;45405;-84
2022/01/05 04:10:39;;;;;;;;;3.33;1.00;;;;;7.58;53.40;100317.28;6218216;22;46274;-83
2022/01/05 04:13:05;;;;;;;;;2.67;1.00;;;;;7.60;53.06;100318.22;6215563;22;45871;-82
2022/01/05 04:15:30;;;;;;;;;5.33;2.67;;;;;7.63;53.01;100312.06;6218435;22;45460;-82
2022/01/05 04:17:56;;;;;;;;;1.00;1.00;;;;;7.64;52.93;100314.75;6217337;22;45449;-82
2022/01/05 04:20:22;;;;;;;;;4.00;2.00;;;;;7.70;53.33;100330.75;6218839;22;46100;-83
2022/01/05 04:22:47;;;;;;;;;1.00;1.00;;;;;7.62;53.02;100337.66;6217039;22;45661;-83
2022/01/05 04:25:13;;;;;;;;;5.00;1.00;;;;;7.71;53.09;100337.81;6217977;22;45231;-82
2022/01/05 04:27:39;;;;;;;;;1.00;1.00;;;;;7.60;53.33;100327.03;6217139;22;45429;-81
2022/01/05 04:30:07;;;;;;;;;0.67;0.67;;;;;7.72;53.15;100318.44;6217242;22;46795;-82
2022/01/05 04:32:35;;;;;;;;;1.33;1.33;;;;;7.74;53.08;100335.25;6218525;22;45338;-83
2022/01/05 04:35:01;;;;;;;;;5.67;2.00;;;;;7.61;52.99;100346.44;6218296;22;45408;-82
2022/01/05 04:37:26;;;;;;;;;2.00;1.00;;;;;7.58;53.37;100338.47;6217571;22;45935;-82
2022/01/05 04:39:52;;;;;;;;;0.00;0.00;;;;;7.60;53.05;100334.09;6216955;22;47149;-82
2022/01/05 04:42:18;;;;;;;;;1.33;1.33;;;;;7.64;53.29;100341.22;6216668;22;45460;-82
2022/01/05 04:44:43;;;;;;;;;3.33;1.33;;;;;7.57;53.25;100342.88;6221324;22;45315;-82
2022/01/05 04:47:09;;;;;;;;;1.00;1.00;;;;;7.56;53.29;100354.28;6251631;22;45630;-82
2022/01/05 04:49:35;;;;;;;;;5.00;2.00;;;;;7.52;53.14;100359.50;6249626;22;45848;-83
2022/01/05 04:55:22;;;;;;;;;3.33;1.33;;;;;7.48;53.06;100349.72;6250429;22;45306;-81
2022/01/05 04:57:48;;;;;;;;;4.00;4.00;;;;;7.48;53.53;100352.38;6222893;22;45328;-82
2022/01/05 05:00:14;;;;;;;;;2.00;2.00;;;;;7.56;53.12;100356.06;6249789;22;45304;-82
2022/01/05 05:02:39;;;;;;;;;2.00;2.00;;;;;7.45;53.14;100350.53;6223004;22;45418;-82
2022/01/05 05:05:05;;;;;;;;;1.33;1.33;;;;;7.49;53.23;100364.72;6223029;22;45328;-82
2022/01/05 05:07:30;;;;;;;;;3.33;3.33;;;;;7.43;53.25;100365.47;6223504;22;45382;-82
2022/01/05 05:09:56;;;;;;;;;1.00;1.00;;;;;7.47;53.78;100358.50;6252136;22;45255;-82
2022/01/05 05:12:21;;;;;;;;;2.33;2.33;;;;;7.47;53.37;100375.25;6225447;22;45676;-82
2022/01/05 05:14:46;;;;;;;;;0.67;0.67;;;;;7.47;53.41;100375.25;6252013;22;45417;-82
2022/01/05 05:17:12;;;;;;;;;1.00;1.00;;;;;7.45;53.66;100368.16;6223348;22;45476;-82
2022/01/05 05:19:38;;;;;;;;;1.00;1.00;;;;;7.72;53.53;100384.59;6221555;22;46733;-82
2022/01/05 05:22:04;;;;;;;;;1.00;1.00;;;;;7.58;53.51;100388.72;6222134;22;45495;-82
2022/01/05 05:24:29;;;;;;;;;2.00;2.00;;;;;7.59;53.34;100385.22;6222609;22;45426;-82
2022/01/05 05:26:55;;;;;;;;;0.00;0.00;;;;;7.53;53.46;100379.78;6250241;22;45473;-82
2022/01/05 05:29:20;;;;;;;;;5.67;3.00;;;;;7.62;53.40;100390.59;6221856;22;47039;-82
2022/01/05 05:31:45;;;;;;;;;2.00;2.00;;;;;7.69;53.37;100391.59;6221671;22;45450;-82
2022/01/05 05:34:11;;;;;;;;;2.33;1.33;;;;;7.73;53.45;100394.31;6248201;22;45917;-82
2022/01/05 05:36:36;;;;;;;;;1.00;1.00;;;;;7.72;53.14;100389.91;6223818;22;44862;-82
2022/01/05 05:39:02;;;;;;;;;2.33;1.00;;;;;7.77;53.20;100406.75;6249622;22;44845;-83
2022/01/05 05:41:28;;;;;;;;;1.67;1.00;;;;;7.70;53.28;100418.09;6250196;22;45348;-82
2022/01/05 05:43:55;;;;;;;;;2.00;2.00;;;;;7.84;52.78;100409.53;6223303;22;45307;-82
2022/01/05 05:46:21;;;;;;;;;1.00;1.00;;;;;7.62;53.32;100406.47;6217199;22;45198;-83
2022/01/05 05:48:46;;;;;;;;;5.00;2.00;;;;;7.58;53.30;100417.84;6221142;22;45717;-82
2022/01/05 05:51:11;;;;;;;;;0.00;0.00;;;;;7.60;53.52;100421.41;6220306;22;44902;-82
2022/01/05 05:53:37;;;;;;;;;1.33;1.33;;;;;7.60;53.25;100429.34;6223529;22;44829;-83
2022/01/05 05:56:05;;;;;;;;;3.00;1.00;;;;;7.75;53.54;100427.00;6220454;22;45536;-83
2022/01/05 05:58:30;;;;;;;;;5.67;2.00;;;;;7.50;53.69;100424.72;6220396;22;46672;-83
2022/01/05 06:00:56;;;;;;;;;1.00;1.00;;;;;7.49;53.65;100417.63;6223909;22;45536;-83
2022/01/05 06:03:21;;;;;;;;;2.00;2.00;;;;;7.49;53.78;100426.47;6224055;22;45502;-83
2022/01/05 06:05:46;;;;;;;;;0.67;0.67;;;;;7.47;53.89;100416.72;6222196;22;44813;-83
2022/01/05 06:08:12;;;;;;;;;2.67;2.67;;;;;7.48;53.65;100423.81;6223817;22;45244;-83
2022/01/05 06:10:37;;;;;;;;;1.00;1.00;;;;;7.47;53.83;100436.13;6222176;22;45357;-83
2022/01/05 06:13:09;;;;;;;;;0.33;0.00;;;;;7.77;53.59;100438.53;6220733;22;45723;-82
2022/01/05 06:15:35;;;;;;;;;1.00;1.00;;;;;7.48;53.76;100448.50;6223059;22;45336;-83
2022/01/05 06:18:01;;;;;;;;;1.67;1.67;;;;;7.43;54.09;100452.78;6222607;22;45487;-83
2022/01/05 06:20:27;;;;;;;;;1.00;1.00;;;;;7.48;53.75;100451.16;6221211;22;45706;-83
2022/01/05 06:22:52;;;;;;;;;2.00;1.00;;;;;7.50;54.06;100467.94;6219179;22;45643;-82
2022/01/05 06:25:18;;;;;;;;;3.33;3.33;;;;;7.46;54.07;100460.81;6220764;22;45397;-83
2022/01/05 06:27:44;;;;;;;;;1.00;1.00;;;;;7.39;54.15;100461.50;6220998;22;45751;-83
2022/01/05 06:30:11;;;;;;;;;5.00;3.00;;;;;7.56;54.21;100459.25;6219551;22;45469;-83
2022/01/05 06:32:43;;;;;;;;;1.67;1.67;;;;;7.59;54.24;100456.66;6221172;22;45651;-83
2022/01/05 06:35:09;;;;;;;;;2.00;1.00;;;;;7.35;54.54;100455.28;6218432;22;45306;-83
2022/01/05 06:37:35;;;;;;;;;0.33;0.00;;;;;7.37;54.25;100474.72;6219054;22;48289;-83
2022/01/05 06:40:00;;;;;;;;;4.33;2.67;;;;;7.35;54.18;100484.38;6217844;22;45398;-83
2022/01/05 06:43:03;;;;;;;;;2.00;1.00;;;;;7.69;54.07;100485.13;6220366;22;45417;-83
2022/01/05 06:45:29;;;;;;;;;2.33;1.33;;;;;7.37;54.24;100487.03;6218098;22;45655;-85
2022/01/05 06:47:54;;;;;;;;;0.00;0.00;;;;;7.37;54.29;100494.97;6220969;22;46005;-83
2022/01/05 06:50:20;;;;;;;;;1.00;1.00;;;;;7.37;54.57;100490.59;6221180;22;45349;-82
2022/01/05 06:52:46;;;;;;;;;0.00;0.00;;;;;7.38;54.45;100488.84;6219435;22;45212;-82
2022/01/05 06:56:07;;;;;;;;;1.67;1.67;;;;;7.71;53.88;100485.16;6220014;22;44965;-83
2022/01/05 06:58:34;;;;;;;;;1.00;1.00;;;;;7.29;54.60;100489.53;6222271;22;45274;-83
2022/01/05 07:00:59;;;;;;;;;2.00;2.00;;;;;7.29;54.42;100486.91;6221186;22;45535;-82
2022/01/05 07:03:24;;;;;;;;;2.33;1.67;;;;;7.30;54.67;100498.34;6220216;22;45367;-83
2022/01/05 07:05:50;;;;;;;;;3.33;2.00;;;;;7.26;54.52;100488.56;6222736;22;44740;-83
2022/01/05 07:08:15;;;;;;;;;2.67;2.00;;;;;7.29;54.73;100502.75;6219498;22;46772;-82
2022/01/05 07:10:41;;;;;;;;;1.00;1.00;;;;;7.28;54.72;100500.97;6221464;22;45341;-83
2022/01/05 07:13:08;;;;;;;;;1.00;1.00;;;;;7.47;54.75;100504.03;6218329;22;45376;-83
2022/01/05 07:15:33;;;;;;;;;1.00;1.00;;;;;7.31;54.74;100510.72;6219399;22;45329;-82
2022/01/05 07:17:59;;;;;;;;;2.67;1.33;;;;;7.21;54.71;100496.38;6218981;22;46575;-83
2022/01/05 07:20:25;;;;;;;;;3.33;3.33;;;;;7.28;55.09;100516.84;6225954;22;45490;-85
2022/01/05 07:22:50;;;;;;;;;2.00;1.33;;;;;7.28;55.08;100524.78;6224185;22;45214;-85
2022/01/05 07:25:16;;;;;;;;;2.00;2.00;;;;;7.29;55.13;100537.16;6224988;22;45307;-85
2022/01/05 07:27:42;;;;;;;;;2.00;2.00;;;;;7.30;55.20;100531.00;6223668;22;48651;-82
2022/01/05 07:30:09;;;;;;;;;4.67;4.67;;;;;7.24;55.16;100530.84;6225269;22;45351;-82
2022/01/05 07:32:35;;;;;;;;;1.00;1.00;;;;;7.20;55.31;100524.56;6221447;22;44776;-82
2022/01/05 07:35:00;;;;;;;;;1.33;1.33;;;;;7.26;55.17;100533.53;6220545;22;45380;-82
2022/01/05 07:37:27;;;;;;;;;3.33;1.00;;;;;7.45;55.22;100534.84;6221020;22;45387;-82
2022/01/05 07:39:53;;;;;;;;;3.33;1.00;;;;;7.24;55.10;100545.81;6218978;22;45342;-83
2022/01/05 07:42:18;;;;;;;;;1.67;1.67;;;;;7.25;55.09;100553.81;6221443;22;45537;-82
2022/01/05 07:44:44;;;;;;;;;1.00;1.00;;;;;7.28;55.36;100556.50;6220525;22;45720;-83
2022/01/05 07:47:10;;;;;;;;;1.33;1.33;;;;;7.28;55.03;100548.56;6223790;22;46781;-82
2022/01/05 07:49:37;;;;;;;;;4.00;2.00;;;;;7.29;54.87;100549.47;6225141;22;45796;-82
2022/01/05 07:52:03;;;;;;;;;2.00;2.00;;;;;7.32;55.28;100557.47;6225968;22;45341;-83
2022/01/05 07:54:29;;;;;;;;;2.00;2.00;;;;;7.28;55.08;100553.88;6225084;22;45778;-82
2022/01/05 07:56:54;;;;;;;;;2.00;2.00;;;;;7.33;55.08;100569.84;6221522;22;45287;-83
2022/01/05 07:59:20;;;;;;;;;2.00;1.33;;;;;7.33;55.04;100562.81;6224254;22;45327;-83
2022/01/05 08:06:04;;;;;;;;;2.00;1.67;;;;;7.67;54.54;100578.59;6224922;22;45118;-82
2022/01/05 08:08:29;;;;;;;;;4.00;3.33;;;;;7.33;54.99;100589.28;6222800;22;46868;-83
2022/01/05 08:10:55;;;;;;;;;3.33;1.67;;;;;7.42;55.29;100585.94;6222715;22;45349;-83
2022/01/05 08:13:25;;;;;;;;;1.67;1.67;;;;;7.50;55.35;100576.44;6222147;22;44841;-81
2022/01/05 08:15:51;;;;;;;;;1.67;1.67;;;;;7.46;55.42;100590.47;6222669;22;44797;-83
2022/01/05 08:18:18;;;;;;;;;1.00;1.00;;;;;7.42;55.13;100580.66;6223327;22;45602;-83
2022/01/05 08:20:44;;;;;;;;;2.67;2.67;;;;;7.43;55.27;100587.72;6220433;22;45448;-83
2022/01/05 08:23:09;;;;;;;;;2.67;1.00;;;;;7.39;55.10;100589.44;6221317;22;45737;-82
2022/01/05 08:25:35;;;;;;;;;5.33;3.67;;;;;7.47;55.21;100610.75;6223891;22;45383;-82
2022/01/05 08:28:01;;;;;;;;;4.00;4.00;;;;;7.38;54.94;100592.91;6225862;22;45365;-84
2022/01/05 08:30:27;;;;;;;;;4.00;2.00;;;;;7.48;55.19;100604.63;6224013;22;45351;-83
2022/01/05 08:32:54;;;;;;;;;5.00;2.00;;;;;7.50;55.33;100609.97;6221619;22;45328;-82
2022/01/05 08:35:23;;;;;;;;;2.00;2.00;;;;;7.71;54.89;100607.81;6221767;22;45636;-83
2022/01/05 08:37:49;;;;;;;;;2.00;2.00;;;;;7.50;55.09;100610.84;6221853;22;48158;-83
2022/01/05 08:40:16;;;;;;;;;4.33;1.33;;;;;7.58;55.22;100611.91;6222478;22;45336;-84
2022/01/05 08:42:42;;;;;;;;;1.33;1.33;;;;;7.55;55.15;100610.94;6225341;22;44843;-82
2022/01/05 08:45:08;;;;;;;;;2.00;2.00;;;;;7.55;55.55;100616.25;6227170;22;45437;-83
2022/01/05 08:47:34;;;;;;;;;4.33;4.00;;;;;7.54;55.35;100606.53;6229296;22;45351;-83
2022/01/05 08:50:00;;;;;;;;;2.67;1.67;;;;;7.60;54.97;100612.84;6227543;22;45325;-83
2022/01/05 08:52:31;;;;;;;;;4.67;4.67;;;;;7.81;55.01;100608.91;6229804;22;45283;-83
2022/01/05 08:54:56;;;;;;;;;4.00;2.67;;;;;7.66;55.08;100620.06;6228259;22;45378;-83
2022/01/05 08:57:22;;;;;;;;;3.00;3.00;;;;;7.68;55.13;100623.63;6254193;22;45341;-84
2022/01/05 08:59:51;;;;;;;;;1.67;1.67;;;;;7.78;54.87;100622.97;6224709;22;45441;-80
2022/01/05 09:02:18;;;;;;;;;3.67;2.00;;;;;7.89;54.74;100615.28;6224838;22;45146;-82
2022/01/05 09:04:44;;;;;;;;;2.67;2.67;;;;;7.80;55.18;100618.63;6227163;22;45428;-81
2022/01/05 09:07:10;;;;;;;;;1.67;1.00;;;;;7.92;54.74;100625.97;6226466;22;47204;-82
2022/01/05 09:09:36;;;;;;;;;1.33;1.33;;;;;7.81;55.05;100628.34;6225868;22;45582;-83
2022/01/05 09:12:03;;;;;;;;;9.00;5.00;;;;;7.88;55.26;100625.88;6224647;22;45315;-82
2022/01/05 09:14:30;;;;;;;;;2.00;2.00;;;;;7.96;55.05;100625.16;6224662;22;45278;-82
2022/01/05 09:16:59;;;;;;;;;3.00;2.00;;;;;7.87;55.19;100640.81;6251560;22;45033;-83
2022/01/05 09:19:28;;;;;;;;;2.33;2.00;;;;;7.92;54.83;100647.16;6223858;22;45491;-82
2022/01/05 09:21:57;;;;;;;;;5.67;3.33;;;;;7.98;54.85;100644.63;6224194;22;44793;-81
2022/01/05 09:24:25;;;;;;;;;3.00;3.00;;;;;7.95;54.69;100638.38;6227104;22;45446;-83
2022/01/05 09:26:52;;;;;;;;;2.00;2.00;;;;;8.16;55.07;100644.16;6201250;22;46962;-82
2022/01/05 09:29:18;;;;;;;;;5.00;3.33;;;;;8.00;54.93;100642.91;6253371;22;44728;-81
2022/01/05 09:31:55;;;;;;;;;4.67;3.33;;;;;8.05;54.97;100643.00;6225015;22;45344;-81
2022/01/05 09:34:21;;;;;;;;;4.33;4.33;;;;;7.88;54.93;100623.22;6219412;22;45366;-81
2022/01/05 09:36:50;;;;;;;;;5.33;4.33;;;;;8.06;55.22;100649.19;6251855;22;45513;-82
2022/01/05 09:42:39;;;;;;;;;5.67;3.67;;;;;8.28;54.94;100667.38;6254747;22;45551;-82
2022/01/05 09:45:28;;;;;;;;;8.33;5.00;;;;;8.47;54.52;100674.00;6228272;22;44975;-82
2022/01/05 09:48:42;;;;;;;;;6.00;3.33;;;;;8.56;54.43;100676.88;6228009;22;45453;-83
2022/01/05 09:51:12;;;;;;;;;4.00;4.00;;;;;8.31;54.78;100687.75;6227621;22;45323;-84
2022/01/05 09:53:39;;;;;;;;;3.33;1.67;;;;;8.38;54.66;100687.94;6204583;22;45465;-82
2022/01/05 09:56:05;;;;;;;;;1.67;1.67;;;;;8.37;54.67;100695.84;6228206;22;45438;-82
2022/01/05 09:58:31;;;;;;;;;5.00;5.00;;;;;8.33;54.94;100696.63;6227928;22;47464;-83
2022/01/05 10:00:57;;;;;;;;;1.67;1.00;;;;;8.35;54.86;100697.56;6253610;22;45889;-83
2022/01/05 10:03:37;;;;;;;;;1.33;1.33;;;;;8.69;54.64;100698.31;6227824;22;45270;-84
2022/01/05 10:09:25;;;;;;;;;2.00;1.67;;;;;8.66;54.48;100695.59;6252284;22;45268;-84
2022/01/05 10:11:51;;;;;;;;;3.00;2.00;;;;;8.80;54.30;100702.97;6224049;22;45324;-83
2022/01/05 10:14:16;;;;;;;;;6.33;5.00;;;;;8.76;54.51;100684.31;6223630;22;45646;-83
2022/01/05 10:16:59;;;;;;;;;1.00;1.00;;;;;8.93;54.04;100704.13;6227278;22;45654;-82
2022/01/05 10:20:08;;;;;;;;;2.00;2.00;;;;;9.32;53.51;100713.72;6229652;22;45297;-81
2022/01/05 10:22:58;;;;;;;;;3.00;1.67;;;;;9.44;53.73;100710.41;6228850;22;45511;-85
2022/01/05 10:25:27;;;;;;;;;5.00;5.00;;;;;9.02;53.83;100667.16;6225027;22;45263;-82
2022/01/05 10:27:58;;;;;;;;;5.00;2.33;;;;;9.33;53.56;100696.94;6201439;22;44820;-84
2022/01/05 10:30:37;;;;;;;;;2.67;2.67;;;;;9.17;53.30;100684.22;6228721;22;46816;-84
2022/01/05 10:33:09;;;;;;;;;2.67;2.67;;;;;9.19;53.57;100711.72;6257552;22;44828;-82
2022/01/05 10:35:35;;;;;;;;;5.00;3.00;;;;;9.00;54.23;100719.28;6257376;22;45012;-84
2022/01/05 10:38:08;;;;;;;;;3.00;2.00;;;;;9.23;54.06;100718.88;6257747;22;45582;-83
2022/01/05 10:40:35;;;;;;;;;4.33;3.00;;;;;9.24;53.74;100723.28;6202855;22;47428;-84
2022/01/05 10:43:14;;;;;;;;;2.00;1.33;;;;;9.49;53.14;100714.00;6228690;22;45274;-84
2022/01/05 10:45:42;;;;;;;;;5.00;3.00;;;;;9.30;53.41;100731.38;6198922;22;45255;-84
2022/01/05 10:58:45;;;;;;;;;6.67;5.00;;;;;9.55;53.44;100718.53;6227090;22;44795;-87
2022/01/05 11:01:27;;;;;;;;;2.33;2.33;;;;;9.69;52.68;100740.91;6204173;22;45363;-84
2022/01/05 11:05:07;;;;;;;;;2.67;2.00;;;;;9.69;52.72;100742.69;6229787;22;45358;-84
2022/01/05 11:07:31;;;;;;;;;2.00;2.00;;;;;9.47;52.85;100728.13;6153983;23;45367;-84
2022/01/05 11:10:09;;;;;;;;;3.67;2.00;;;;;9.62;52.80;100744.34;6138678;23;45446;-84
2022/01/05 11:12:37;;;;;;;;;1.33;1.33;;;;;9.36;52.02;100698.75;6140468;23;45719;-83
2022/01/05 11:15:32;;;;;;;;;3.00;3.00;;;;;9.64;51.87;100733.75;6162980;23;45394;-85
2022/01/05 11:18:20;;;;;;;;;5.33;3.00;;;;;9.60;52.19;100735.47;6134578;23;45767;-83
2022/01/05 11:21:11;;;;;;;;;3.00;3.00;;;;;9.61;52.18;100747.84;6163336;23;45366;-86
2022/01/05 11:23:37;;;;;;;;;3.00;3.00;;;;;9.35;52.59;100747.38;6136762;23;45501;-84
2022/01/05 11:26:02;;;;;;;;;6.00;3.00;;;;;9.37;52.32;100742.97;6162490;23;45313;-86
2022/01/05 11:28:30;;;;;;;;;2.00;2.00;;;;;9.52;52.64;100737.09;6161726;23;45958;-85
2022/01/05 11:30:57;;;;;;;;;6.33;4.33;;;;;9.50;52.09;100737.06;6137833;23;45356;-84
2022/01/05 11:33:22;;;;;;;;;1.67;0.67;;;;;9.52;52.06;100756.56;6135669;23;45009;-85
2022/01/05 11:35:48;;;;;;;;;2.00;2.00;;;;;9.51;52.00;100745.91;6138616;23;46943;-86
2022/01/05 11:38:15;;;;;;;;;4.67;3.00;;;;;9.44;51.88;100733.41;6162130;23;45544;-84
2022/01/05 11:40:52;;;;;;;;;4.33;4.33;;;;;9.76;51.40;100748.13;6164998;23;45410;-85
2022/01/05 11:43:35;;;;;;;;;2.33;1.00;;;;;9.78;50.66;100735.78;6187228;22;45290;-85
2022/01/05 11:46:33;;;;;;;;;7.00;4.33;;;;;9.83;50.80;100749.13;6230752;22;45457;-83
2022/01/05 11:49:11;;;;;;;;;3.00;3.00;;;;;9.75;51.48;100746.34;6142906;23;45179;-85
2022/01/05 11:51:43;;;;;;;;;5.00;2.33;;;;;9.77;51.13;100739.28;6138575;23;44952;-85
2022/01/05 11:54:23;;;;;;;;;1.67;1.67;;;;;9.86;51.49;100740.34;6146503;23;45370;-84
2022/01/05 11:56:55;;;;;;;;;7.67;3.00;;;;;9.67;51.88;100721.41;6141155;23;47538;-85
2022/01/05 11:59:50;;;;;;;;;5.33;3.00;;;;;9.59;50.75;100718.66;6141717;23;45368;-86
2022/01/05 12:02:18;;;;;;;;;3.00;2.00;;;;;9.63;50.71;100719.56;6166021;23;45336;-86
2022/01/05 12:04:56;;;;;;;;;2.33;1.67;;;;;9.99;51.23;100744.97;6147820;23;45321;-84
2022/01/05 12:10:53;;;;;;;;;4.33;4.33;;;;;9.99;50.42;100729.03;6172893;23;44702;-84
2022/01/05 12:13:35;;;;;;;;;1.00;1.00;;;;;10.02;50.39;100743.28;6141441;23;44794;-84